sensor_id;sensor_type;location;lat;lon;timestamp;P1;durP1;ratioP1;P2;durP2;ratioP2
73454;SDS011;61690;51.824;6.306;2022-08-18T00:00:12;31.47;;;23.83;;
73454;SDS011;61690;51.824;6.306;2022-08-18T00:02:38;33.33;;;24.13;;
73454;SDS011;61690;51.824;6.306;2022-08-18T00:05:05;34.07;;;25.03;;
73454;SDS011;61690;51.824;6.306;2022-08-18T00:07:32;34.30;;;24.90;;
73454;SDS011;61690;51.824;6.306;2022-08-18T00:09:59;34.67;;;24.83;;
73454;SDS011;61690;51.824;6.306;2022-08-18T00:12:27;36.50;;;26.60;;
73454;SDS011;61690;51.824;6.306;2022-08-18T00:14:58;35.33;;;26.40;;
73454;SDS011;61690;51.824;6.306;2022-08-18T00:17:28;34.78;;;24.75;;
73454;SDS011;61690;51.824;6.306;2022-08-18T00:19:54;35.33;;;26.42;;
73454;SDS011;61690;51.824;6.306;2022-08-18T00:22:20;36.25;;;26.02;;
73454;SDS011;61690;51.824;6.306;2022-08-18T00:24:48;34.27;;;25.60;;
73454;SDS011;61690;51.824;6.306;2022-08-18T00:27:17;34.47;;;24.92;;
73454;SDS011;61690;51.824;6.306;2022-08-18T00:29:45;35.78;;;25.85;;
73454;SDS011;61690;51.824;6.306;2022-08-18T00:32:12;35.58;;;25.60;;
73454;SDS011;61690;51.824;6.306;2022-08-18T00:34:43;37.90;;;26.60;;
73454;SDS011;61690;51.824;6.306;2022-08-18T00:37:08;35.80;;;25.20;;
73454;SDS011;61690;51.824;6.306;2022-08-18T00:39:34;36.87;;;26.10;;
73454;SDS011;61690;51.824;6.306;2022-08-18T00:42:16;36.28;;;25.58;;
73454;SDS011;61690;51.824;6.306;2022-08-18T00:44:43;37.83;;;25.50;;
73454;SDS011;61690;51.824;6.306;2022-08-18T00:47:09;37.00;;;25.07;;
73454;SDS011;61690;51.824;6.306;2022-08-18T00:49:35;33.92;;;25.38;;
73454;SDS011;61690;51.824;6.306;2022-08-18T00:52:02;34.70;;;23.80;;
73454;SDS011;61690;51.824;6.306;2022-08-18T00:54:29;34.50;;;25.50;;
73454;SDS011;61690;51.824;6.306;2022-08-18T00:56:58;33.93;;;24.33;;
73454;SDS011;61690;51.824;6.306;2022-08-18T00:59:40;34.45;;;24.15;;
73454;SDS011;61690;51.824;6.306;2022-08-18T01:02:10;34.45;;;24.10;;
73454;SDS011;61690;51.824;6.306;2022-08-18T01:04:57;36.15;;;25.65;;
73454;SDS011;61690;51.824;6.306;2022-08-18T01:07:29;33.78;;;24.23;;
73454;SDS011;61690;51.824;6.306;2022-08-18T01:10:03;35.63;;;24.97;;
73454;SDS011;61690;51.824;6.306;2022-08-18T01:12:28;34.80;;;24.23;;
73454;SDS011;61690;51.824;6.306;2022-08-18T01:14:54;33.27;;;24.30;;
73454;SDS011;61690;51.824;6.306;2022-08-18T01:17:20;32.17;;;23.98;;
73454;SDS011;61690;51.824;6.306;2022-08-18T01:20:06;33.78;;;23.65;;
73454;SDS011;61690;51.824;6.306;2022-08-18T01:25:28;33.00;;;23.27;;
73454;SDS011;61690;51.824;6.306;2022-08-18T01:28:14;33.40;;;23.30;;
73454;SDS011;61690;51.824;6.306;2022-08-18T01:30:49;33.65;;;23.67;;
73454;SDS011;61690;51.824;6.306;2022-08-18T01:33:17;34.08;;;23.70;;
73454;SDS011;61690;51.824;6.306;2022-08-18T01:35:44;32.70;;;22.58;;
73454;SDS011;61690;51.824;6.306;2022-08-18T01:38:16;34.40;;;23.47;;
73454;SDS011;61690;51.824;6.306;2022-08-18T01:40:44;34.58;;;24.17;;
73454;SDS011;61690;51.824;6.306;2022-08-18T01:43:11;34.38;;;24.25;;
73454;SDS011;61690;51.824;6.306;2022-08-18T01:45:37;33.05;;;23.70;;
73454;SDS011;61690;51.824;6.306;2022-08-18T01:48:03;35.95;;;24.98;;
73454;SDS011;61690;51.824;6.306;2022-08-18T01:50:29;34.67;;;24.40;;
73454;SDS011;61690;51.824;6.306;2022-08-18T01:52:58;37.17;;;25.02;;
73454;SDS011;61690;51.824;6.306;2022-08-18T01:55:24;35.93;;;25.40;;
73454;SDS011;61690;51.824;6.306;2022-08-18T01:57:52;36.67;;;24.60;;
73454;SDS011;61690;51.824;6.306;2022-08-18T02:00:18;35.65;;;24.42;;
73454;SDS011;61690;51.824;6.306;2022-08-18T02:02:43;37.13;;;24.50;;
73454;SDS011;61690;51.824;6.306;2022-08-18T02:05:12;34.33;;;23.40;;
73454;SDS011;61690;51.824;6.306;2022-08-18T02:07:41;36.42;;;25.13;;
73454;SDS011;61690;51.824;6.306;2022-08-18T02:10:06;37.50;;;25.13;;
73454;SDS011;61690;51.824;6.306;2022-08-18T02:12:35;36.15;;;24.33;;
73454;SDS011;61690;51.824;6.306;2022-08-18T02:15:01;38.50;;;25.65;;
73454;SDS011;61690;51.824;6.306;2022-08-18T02:17:27;36.67;;;25.08;;
73454;SDS011;61690;51.824;6.306;2022-08-18T02:19:52;36.73;;;24.93;;
73454;SDS011;61690;51.824;6.306;2022-08-18T02:22:19;38.40;;;25.38;;
73454;SDS011;61690;51.824;6.306;2022-08-18T02:24:45;37.30;;;25.17;;
73454;SDS011;61690;51.824;6.306;2022-08-18T02:27:11;35.30;;;24.70;;
73454;SDS011;61690;51.824;6.306;2022-08-18T02:29:38;37.75;;;26.02;;
73454;SDS011;61690;51.824;6.306;2022-08-18T02:32:04;36.97;;;24.83;;
73454;SDS011;61690;51.824;6.306;2022-08-18T02:34:29;36.47;;;25.75;;
73454;SDS011;61690;51.824;6.306;2022-08-18T02:36:54;37.13;;;25.73;;
73454;SDS011;61690;51.824;6.306;2022-08-18T02:39:20;35.87;;;25.47;;
73454;SDS011;61690;51.824;6.306;2022-08-18T02:41:45;37.63;;;25.87;;
73454;SDS011;61690;51.824;6.306;2022-08-18T02:44:11;34.75;;;24.67;;
73454;SDS011;61690;51.824;6.306;2022-08-18T02:46:37;37.63;;;26.70;;
73454;SDS011;61690;51.824;6.306;2022-08-18T02:49:03;38.23;;;26.43;;
73454;SDS011;61690;51.824;6.306;2022-08-18T02:51:31;39.92;;;26.10;;
73454;SDS011;61690;51.824;6.306;2022-08-18T02:53:56;38.40;;;25.90;;
73454;SDS011;61690;51.824;6.306;2022-08-18T02:56:24;38.55;;;25.23;;
73454;SDS011;61690;51.824;6.306;2022-08-18T02:58:57;37.00;;;26.25;;
73454;SDS011;61690;51.824;6.306;2022-08-18T03:01:30;36.30;;;24.98;;
73454;SDS011;61690;51.824;6.306;2022-08-18T03:03:59;34.28;;;24.30;;
73454;SDS011;61690;51.824;6.306;2022-08-18T03:06:25;34.67;;;23.67;;
73454;SDS011;61690;51.824;6.306;2022-08-18T03:08:52;32.92;;;24.00;;
73454;SDS011;61690;51.824;6.306;2022-08-18T03:11:22;32.83;;;22.65;;
73454;SDS011;61690;51.824;6.306;2022-08-18T03:13:51;30.15;;;21.77;;
73454;SDS011;61690;51.824;6.306;2022-08-18T03:16:17;29.70;;;21.23;;
73454;SDS011;61690;51.824;6.306;2022-08-18T03:18:43;30.13;;;20.30;;
73454;SDS011;61690;51.824;6.306;2022-08-18T03:21:11;27.23;;;19.17;;
73454;SDS011;61690;51.824;6.306;2022-08-18T03:23:38;27.60;;;20.02;;
73454;SDS011;61690;51.824;6.306;2022-08-18T03:26:05;26.92;;;19.17;;
73454;SDS011;61690;51.824;6.306;2022-08-18T03:28:31;24.20;;;17.88;;
73454;SDS011;61690;51.824;6.306;2022-08-18T03:30:58;25.50;;;17.93;;
73454;SDS011;61690;51.824;6.306;2022-08-18T03:33:23;24.00;;;17.00;;
73454;SDS011;61690;51.824;6.306;2022-08-18T03:35:50;23.37;;;16.80;;
73454;SDS011;61690;51.824;6.306;2022-08-18T03:38:16;21.27;;;15.77;;
73454;SDS011;61690;51.824;6.306;2022-08-18T03:40:41;20.70;;;15.33;;
73454;SDS011;61690;51.824;6.306;2022-08-18T03:43:07;20.95;;;15.40;;
73454;SDS011;61690;51.824;6.306;2022-08-18T03:45:33;20.50;;;15.37;;
73454;SDS011;61690;51.824;6.306;2022-08-18T03:47:59;23.30;;;17.23;;
73454;SDS011;61690;51.824;6.306;2022-08-18T03:50:26;23.95;;;17.95;;
73454;SDS011;61690;51.824;6.306;2022-08-18T03:52:52;27.88;;;19.38;;
73454;SDS011;61690;51.824;6.306;2022-08-18T03:55:19;25.30;;;18.43;;
73454;SDS011;61690;51.824;6.306;2022-08-18T03:57:45;25.30;;;18.75;;
73454;SDS011;61690;51.824;6.306;2022-08-18T04:00:10;24.90;;;18.73;;
73454;SDS011;61690;51.824;6.306;2022-08-18T04:02:37;25.90;;;18.75;;
73454;SDS011;61690;51.824;6.306;2022-08-18T04:05:03;24.92;;;18.45;;
73454;SDS011;61690;51.824;6.306;2022-08-18T04:07:29;24.33;;;17.90;;
73454;SDS011;61690;51.824;6.306;2022-08-18T04:09:55;22.43;;;17.07;;
73454;SDS011;61690;51.824;6.306;2022-08-18T04:12:21;23.93;;;17.93;;
73454;SDS011;61690;51.824;6.306;2022-08-18T04:14:47;24.07;;;16.40;;
73454;SDS011;61690;51.824;6.306;2022-08-18T04:17:14;23.38;;;16.83;;
73454;SDS011;61690;51.824;6.306;2022-08-18T04:19:40;23.02;;;16.20;;
73454;SDS011;61690;51.824;6.306;2022-08-18T04:22:05;22.53;;;15.83;;
73454;SDS011;61690;51.824;6.306;2022-08-18T04:24:31;20.30;;;14.63;;
73454;SDS011;61690;51.824;6.306;2022-08-18T04:26:59;23.48;;;14.70;;
73454;SDS011;61690;51.824;6.306;2022-08-18T04:29:26;20.38;;;15.15;;
73454;SDS011;61690;51.824;6.306;2022-08-18T04:31:52;19.10;;;13.75;;
73454;SDS011;61690;51.824;6.306;2022-08-18T04:34:18;19.43;;;13.50;;
73454;SDS011;61690;51.824;6.306;2022-08-18T04:36:46;19.17;;;13.68;;
73454;SDS011;61690;51.824;6.306;2022-08-18T04:39:13;19.20;;;13.45;;
73454;SDS011;61690;51.824;6.306;2022-08-18T04:41:39;21.13;;;13.57;;
73454;SDS011;61690;51.824;6.306;2022-08-18T04:44:06;18.55;;;13.15;;
73454;SDS011;61690;51.824;6.306;2022-08-18T04:46:34;20.80;;;13.40;;
73454;SDS011;61690;51.824;6.306;2022-08-18T04:49:08;20.27;;;13.63;;
73454;SDS011;61690;51.824;6.306;2022-08-18T04:51:34;18.13;;;13.07;;
73454;SDS011;61690;51.824;6.306;2022-08-18T04:54:00;18.60;;;12.63;;
73454;SDS011;61690;51.824;6.306;2022-08-18T04:56:31;18.90;;;12.83;;
73454;SDS011;61690;51.824;6.306;2022-08-18T04:59:00;17.42;;;12.38;;
73454;SDS011;61690;51.824;6.306;2022-08-18T05:01:35;17.23;;;11.98;;
73454;SDS011;61690;51.824;6.306;2022-08-18T05:04:05;15.85;;;11.52;;
73454;SDS011;61690;51.824;6.306;2022-08-18T05:06:31;16.63;;;11.27;;
73454;SDS011;61690;51.824;6.306;2022-08-18T05:09:02;16.20;;;11.60;;
73454;SDS011;61690;51.824;6.306;2022-08-18T05:11:30;17.02;;;11.35;;
73454;SDS011;61690;51.824;6.306;2022-08-18T05:13:59;16.95;;;11.60;;
73454;SDS011;61690;51.824;6.306;2022-08-18T05:16:30;15.68;;;10.55;;
73454;SDS011;61690;51.824;6.306;2022-08-18T05:19:00;18.10;;;11.07;;
73454;SDS011;61690;51.824;6.306;2022-08-18T05:21:28;17.60;;;11.05;;
73454;SDS011;61690;51.824;6.306;2022-08-18T05:23:54;14.98;;;10.98;;
73454;SDS011;61690;51.824;6.306;2022-08-18T05:26:20;16.70;;;11.97;;
73454;SDS011;61690;51.824;6.306;2022-08-18T05:28:45;15.55;;;10.95;;
73454;SDS011;61690;51.824;6.306;2022-08-18T05:31:12;18.07;;;11.90;;
73454;SDS011;61690;51.824;6.306;2022-08-18T05:33:43;16.98;;;12.13;;
73454;SDS011;61690;51.824;6.306;2022-08-18T05:36:34;17.20;;;11.25;;
73454;SDS011;61690;51.824;6.306;2022-08-18T05:42:14;16.00;;;10.23;;
73454;SDS011;61690;51.824;6.306;2022-08-18T05:44:46;15.00;;;10.40;;
73454;SDS011;61690;51.824;6.306;2022-08-18T05:47:27;17.42;;;10.25;;
73454;SDS011;61690;51.824;6.306;2022-08-18T05:49:55;16.17;;;9.90;;
73454;SDS011;61690;51.824;6.306;2022-08-18T05:52:27;14.15;;;9.45;;
73454;SDS011;61690;51.824;6.306;2022-08-18T05:55:08;15.07;;;9.73;;
73454;SDS011;61690;51.824;6.306;2022-08-18T05:58:00;17.20;;;10.40;;
73454;SDS011;61690;51.824;6.306;2022-08-18T06:00:29;14.98;;;9.75;;
73454;SDS011;61690;51.824;6.306;2022-08-18T06:03:06;16.10;;;10.70;;
73454;SDS011;61690;51.824;6.306;2022-08-18T06:05:40;14.82;;;10.00;;
73454;SDS011;61690;51.824;6.306;2022-08-18T06:08:15;14.13;;;10.00;;
73454;SDS011;61690;51.824;6.306;2022-08-18T06:10:46;14.63;;;9.73;;
73454;SDS011;61690;51.824;6.306;2022-08-18T06:13:18;12.88;;;8.93;;
73454;SDS011;61690;51.824;6.306;2022-08-18T06:15:51;11.90;;;6.82;;
73454;SDS011;61690;51.824;6.306;2022-08-18T06:18:32;13.87;;;8.83;;
73454;SDS011;61690;51.824;6.306;2022-08-18T06:21:10;17.48;;;9.48;;
73454;SDS011;61690;51.824;6.306;2022-08-18T06:31:32;15.10;;;9.97;;
73454;SDS011;61690;51.824;6.306;2022-08-18T06:36:57;15.27;;;9.60;;
73454;SDS011;61690;51.824;6.306;2022-08-18T06:39:33;14.65;;;9.85;;
73454;SDS011;61690;51.824;6.306;2022-08-18T06:42:05;15.75;;;9.57;;
73454;SDS011;61690;51.824;6.306;2022-08-18T06:44:33;16.53;;;9.80;;
73454;SDS011;61690;51.824;6.306;2022-08-18T06:50:18;15.40;;;9.97;;
73454;SDS011;61690;51.824;6.306;2022-08-18T06:52:57;16.13;;;9.75;;
73454;SDS011;61690;51.824;6.306;2022-08-18T07:00:38;15.18;;;10.00;;
73454;SDS011;61690;51.824;6.306;2022-08-18T07:03:15;14.70;;;9.67;;
73454;SDS011;61690;51.824;6.306;2022-08-18T07:06:04;15.15;;;9.10;;
73454;SDS011;61690;51.824;6.306;2022-08-18T07:08:45;14.77;;;9.50;;
73454;SDS011;61690;51.824;6.306;2022-08-18T07:13:37;12.90;;;8.47;;
73454;SDS011;61690;51.824;6.306;2022-08-18T07:16:20;14.23;;;8.52;;
73454;SDS011;61690;51.824;6.306;2022-08-18T07:18:48;12.67;;;7.53;;
73454;SDS011;61690;51.824;6.306;2022-08-18T07:21:32;12.13;;;7.20;;
73454;SDS011;61690;51.824;6.306;2022-08-18T07:26:32;14.07;;;9.10;;
73454;SDS011;61690;51.824;6.306;2022-08-18T07:29:31;14.60;;;9.57;;
73454;SDS011;61690;51.824;6.306;2022-08-18T07:32:00;15.07;;;8.50;;
73454;SDS011;61690;51.824;6.306;2022-08-18T07:34:34;14.75;;;9.10;;
73454;SDS011;61690;51.824;6.306;2022-08-18T07:37:39;11.55;;;8.20;;
73454;SDS011;61690;51.824;6.306;2022-08-18T07:40:26;13.10;;;7.35;;
73454;SDS011;61690;51.824;6.306;2022-08-18T07:43:16;12.75;;;7.97;;
73454;SDS011;61690;51.824;6.306;2022-08-18T07:46:11;12.67;;;8.23;;
73454;SDS011;61690;51.824;6.306;2022-08-18T07:48:41;12.30;;;7.90;;
73454;SDS011;61690;51.824;6.306;2022-08-18T07:51:21;11.77;;;7.43;;
73454;SDS011;61690;51.824;6.306;2022-08-18T07:57:01;11.80;;;7.20;;
73454;SDS011;61690;51.824;6.306;2022-08-18T08:02:26;14.60;;;9.23;;
73454;SDS011;61690;51.824;6.306;2022-08-18T08:05:02;14.85;;;9.45;;
73454;SDS011;61690;51.824;6.306;2022-08-18T08:11:21;12.82;;;8.68;;
73454;SDS011;61690;51.824;6.306;2022-08-18T08:22:51;12.30;;;7.80;;
73454;SDS011;61690;51.824;6.306;2022-08-18T08:31:05;12.55;;;8.65;;
73454;SDS011;61690;51.824;6.306;2022-08-18T08:33:49;14.10;;;9.43;;
73454;SDS011;61690;51.824;6.306;2022-08-18T08:36:22;11.53;;;7.70;;
73454;SDS011;61690;51.824;6.306;2022-08-18T08:42:00;11.77;;;7.60;;
73454;SDS011;61690;51.824;6.306;2022-08-18T08:44:42;10.52;;;6.30;;
73454;SDS011;61690;51.824;6.306;2022-08-18T08:47:19;9.25;;;6.20;;
73454;SDS011;61690;51.824;6.306;2022-08-18T08:52:36;10.10;;;6.57;;
73454;SDS011;61690;51.824;6.306;2022-08-18T09:00:42;10.18;;;6.55;;
73454;SDS011;61690;51.824;6.306;2022-08-18T09:24:58;12.13;;;7.40;;
73454;SDS011;61690;51.824;6.306;2022-08-18T09:30:35;11.23;;;6.50;;
73454;SDS011;61690;51.824;6.306;2022-08-18T09:38:59;12.98;;;8.45;;
73454;SDS011;61690;51.824;6.306;2022-08-18T09:41:53;12.60;;;8.50;;
73454;SDS011;61690;51.824;6.306;2022-08-18T09:47:57;9.33;;;6.23;;
73454;SDS011;61690;51.824;6.306;2022-08-18T09:55:34;10.40;;;7.00;;
73454;SDS011;61690;51.824;6.306;2022-08-18T09:58:13;10.50;;;7.00;;
73454;SDS011;61690;51.824;6.306;2022-08-18T10:00:37;11.43;;;6.90;;
73454;SDS011;61690;51.824;6.306;2022-08-18T10:03:03;9.70;;;6.63;;
73454;SDS011;61690;51.824;6.306;2022-08-18T10:05:36;11.97;;;8.50;;
73454;SDS011;61690;51.824;6.306;2022-08-18T10:13:32;9.82;;;6.65;;
73454;SDS011;61690;51.824;6.306;2022-08-18T10:19:10;9.77;;;6.77;;
73454;SDS011;61690;51.824;6.306;2022-08-18T10:24:20;10.20;;;6.75;;
73454;SDS011;61690;51.824;6.306;2022-08-18T10:37:03;12.10;;;7.60;;
73454;SDS011;61690;51.824;6.306;2022-08-18T10:39:45;9.35;;;6.88;;
73454;SDS011;61690;51.824;6.306;2022-08-18T10:42:24;10.00;;;7.60;;
73454;SDS011;61690;51.824;6.306;2022-08-18T10:44:59;11.55;;;8.00;;
73454;SDS011;61690;51.824;6.306;2022-08-18T10:47:32;12.77;;;7.30;;
73454;SDS011;61690;51.824;6.306;2022-08-18T10:49:58;9.70;;;6.73;;
73454;SDS011;61690;51.824;6.306;2022-08-18T10:55:24;10.27;;;7.07;;
73454;SDS011;61690;51.824;6.306;2022-08-18T10:58:03;9.50;;;7.00;;
73454;SDS011;61690;51.824;6.306;2022-08-18T11:03:29;11.23;;;7.70;;
73454;SDS011;61690;51.824;6.306;2022-08-18T11:06:26;11.55;;;7.68;;
73454;SDS011;61690;51.824;6.306;2022-08-18T11:08:54;11.30;;;7.85;;
73454;SDS011;61690;51.824;6.306;2022-08-18T11:11:28;11.02;;;8.05;;
73454;SDS011;61690;51.824;6.306;2022-08-18T11:19:40;10.77;;;7.22;;
73454;SDS011;61690;51.824;6.306;2022-08-18T11:22:21;10.43;;;6.47;;
73454;SDS011;61690;51.824;6.306;2022-08-18T11:24:49;10.13;;;6.80;;
73454;SDS011;61690;51.824;6.306;2022-08-18T11:27:17;8.57;;;5.97;;
73454;SDS011;61690;51.824;6.306;2022-08-18T11:29:45;8.97;;;6.23;;
73454;SDS011;61690;51.824;6.306;2022-08-18T11:37:23;9.53;;;6.33;;
73454;SDS011;61690;51.824;6.306;2022-08-18T11:39:55;8.88;;;6.13;;
73454;SDS011;61690;51.824;6.306;2022-08-18T11:42:31;9.10;;;5.70;;
73454;SDS011;61690;51.824;6.306;2022-08-18T11:45:06;9.57;;;5.90;;
73454;SDS011;61690;51.824;6.306;2022-08-18T11:53:24;10.18;;;7.20;;
73454;SDS011;61690;51.824;6.306;2022-08-18T11:58:53;10.70;;;7.50;;
73454;SDS011;61690;51.824;6.306;2022-08-18T12:01:37;10.05;;;7.30;;
73454;SDS011;61690;51.824;6.306;2022-08-18T12:04:15;10.07;;;6.30;;
73454;SDS011;61690;51.824;6.306;2022-08-18T12:11:58;12.63;;;8.90;;
73454;SDS011;61690;51.824;6.306;2022-08-18T12:14:30;9.95;;;6.75;;
73454;SDS011;61690;51.824;6.306;2022-08-18T12:16:58;11.10;;;8.87;;
73454;SDS011;61690;51.824;6.306;2022-08-18T12:19:24;10.95;;;8.00;;
73454;SDS011;61690;51.824;6.306;2022-08-18T12:24:22;9.65;;;7.13;;
73454;SDS011;61690;51.824;6.306;2022-08-18T12:26:53;10.03;;;6.43;;
73454;SDS011;61690;51.824;6.306;2022-08-18T12:29:19;9.48;;;6.30;;
73454;SDS011;61690;51.824;6.306;2022-08-18T12:31:47;11.52;;;6.18;;
73454;SDS011;61690;51.824;6.306;2022-08-18T12:34:17;9.10;;;5.95;;
73454;SDS011;61690;51.824;6.306;2022-08-18T12:36:45;8.80;;;6.40;;
73454;SDS011;61690;51.824;6.306;2022-08-18T12:39:11;8.73;;;5.53;;
73454;SDS011;61690;51.824;6.306;2022-08-18T12:41:37;8.50;;;5.25;;
73454;SDS011;61690;51.824;6.306;2022-08-18T12:44:03;9.30;;;5.80;;
73454;SDS011;61690;51.824;6.306;2022-08-18T12:46:28;11.40;;;5.83;;
73454;SDS011;61690;51.824;6.306;2022-08-18T12:48:54;9.32;;;5.75;;
73454;SDS011;61690;51.824;6.306;2022-08-18T12:51:20;8.63;;;5.80;;
73454;SDS011;61690;51.824;6.306;2022-08-18T12:53:45;8.60;;;5.90;;
73454;SDS011;61690;51.824;6.306;2022-08-18T12:56:31;8.90;;;5.70;;
73454;SDS011;61690;51.824;6.306;2022-08-18T12:59:00;8.70;;;5.50;;
73454;SDS011;61690;51.824;6.306;2022-08-18T13:01:27;8.65;;;5.15;;
73454;SDS011;61690;51.824;6.306;2022-08-18T13:03:53;8.90;;;5.20;;
73454;SDS011;61690;51.824;6.306;2022-08-18T13:06:22;8.13;;;5.03;;
73454;SDS011;61690;51.824;6.306;2022-08-18T13:08:49;8.07;;;5.47;;
73454;SDS011;61690;51.824;6.306;2022-08-18T13:11:15;8.65;;;5.15;;
73454;SDS011;61690;51.824;6.306;2022-08-18T13:13:42;7.72;;;5.22;;
73454;SDS011;61690;51.824;6.306;2022-08-18T13:16:08;9.30;;;5.25;;
73454;SDS011;61690;51.824;6.306;2022-08-18T13:18:35;7.30;;;4.93;;
73454;SDS011;61690;51.824;6.306;2022-08-18T13:21:03;8.67;;;5.00;;
73454;SDS011;61690;51.824;6.306;2022-08-18T13:23:32;7.13;;;4.45;;
73454;SDS011;61690;51.824;6.306;2022-08-18T13:25:58;7.68;;;5.00;;
73454;SDS011;61690;51.824;6.306;2022-08-18T13:28:25;7.50;;;4.97;;
73454;SDS011;61690;51.824;6.306;2022-08-18T13:30:50;9.17;;;5.27;;
73454;SDS011;61690;51.824;6.306;2022-08-18T13:33:17;8.80;;;5.10;;
73454;SDS011;61690;51.824;6.306;2022-08-18T13:35:43;8.80;;;5.20;;
73454;SDS011;61690;51.824;6.306;2022-08-18T13:38:09;10.18;;;4.90;;
73454;SDS011;61690;51.824;6.306;2022-08-18T13:40:36;8.38;;;5.18;;
73454;SDS011;61690;51.824;6.306;2022-08-18T13:43:02;7.13;;;4.90;;
73454;SDS011;61690;51.824;6.306;2022-08-18T13:45:27;8.77;;;5.18;;
73454;SDS011;61690;51.824;6.306;2022-08-18T13:47:53;7.30;;;4.87;;
73454;SDS011;61690;51.824;6.306;2022-08-18T13:50:19;10.87;;;5.40;;
73454;SDS011;61690;51.824;6.306;2022-08-18T13:52:44;6.93;;;5.00;;
73454;SDS011;61690;51.824;6.306;2022-08-18T13:55:13;10.60;;;5.45;;
73454;SDS011;61690;51.824;6.306;2022-08-18T13:57:40;9.32;;;5.20;;
73454;SDS011;61690;51.824;6.306;2022-08-18T14:00:12;8.20;;;5.15;;
73454;SDS011;61690;51.824;6.306;2022-08-18T14:02:40;6.93;;;4.80;;
73454;SDS011;61690;51.824;6.306;2022-08-18T14:05:05;7.90;;;5.20;;
73454;SDS011;61690;51.824;6.306;2022-08-18T14:07:33;9.02;;;5.20;;
73454;SDS011;61690;51.824;6.306;2022-08-18T14:09:59;7.70;;;5.20;;
73454;SDS011;61690;51.824;6.306;2022-08-18T14:12:25;6.95;;;4.55;;
73454;SDS011;61690;51.824;6.306;2022-08-18T14:14:51;8.13;;;4.70;;
73454;SDS011;61690;51.824;6.306;2022-08-18T14:17:17;9.30;;;5.47;;
73454;SDS011;61690;51.824;6.306;2022-08-18T14:19:45;9.57;;;5.50;;
73454;SDS011;61690;51.824;6.306;2022-08-18T14:22:29;8.43;;;5.20;;
73454;SDS011;61690;51.824;6.306;2022-08-18T14:25:13;8.70;;;5.50;;
73454;SDS011;61690;51.824;6.306;2022-08-18T14:27:58;9.07;;;5.20;;
73454;SDS011;61690;51.824;6.306;2022-08-18T14:30:23;10.07;;;5.00;;
73454;SDS011;61690;51.824;6.306;2022-08-18T14:32:49;8.97;;;5.13;;
73454;SDS011;61690;51.824;6.306;2022-08-18T14:35:17;7.40;;;5.20;;
73454;SDS011;61690;51.824;6.306;2022-08-18T14:37:46;8.10;;;5.50;;
73454;SDS011;61690;51.824;6.306;2022-08-18T14:40:12;8.60;;;5.37;;
73454;SDS011;61690;51.824;6.306;2022-08-18T14:42:37;8.30;;;5.20;;
73454;SDS011;61690;51.824;6.306;2022-08-18T14:45:04;9.27;;;5.30;;
73454;SDS011;61690;51.824;6.306;2022-08-18T14:47:30;8.95;;;5.32;;
73454;SDS011;61690;51.824;6.306;2022-08-18T14:49:59;8.23;;;5.15;;
73454;SDS011;61690;51.824;6.306;2022-08-18T14:52:25;8.02;;;5.15;;
73454;SDS011;61690;51.824;6.306;2022-08-18T14:54:52;7.10;;;4.93;;
73454;SDS011;61690;51.824;6.306;2022-08-18T14:57:19;7.57;;;5.00;;
73454;SDS011;61690;51.824;6.306;2022-08-18T14:59:44;7.57;;;4.90;;
73454;SDS011;61690;51.824;6.306;2022-08-18T15:02:11;6.82;;;4.70;;
73454;SDS011;61690;51.824;6.306;2022-08-18T15:04:37;8.63;;;4.60;;
73454;SDS011;61690;51.824;6.306;2022-08-18T15:07:03;8.40;;;4.50;;
73454;SDS011;61690;51.824;6.306;2022-08-18T15:09:28;7.55;;;4.20;;
73454;SDS011;61690;51.824;6.306;2022-08-18T15:11:55;8.90;;;4.97;;
73454;SDS011;61690;51.824;6.306;2022-08-18T15:14:26;7.43;;;4.40;;
73454;SDS011;61690;51.824;6.306;2022-08-18T15:16:54;6.68;;;4.28;;
73454;SDS011;61690;51.824;6.306;2022-08-18T15:19:21;6.63;;;4.30;;
73454;SDS011;61690;51.824;6.306;2022-08-18T15:21:47;7.88;;;4.40;;
73454;SDS011;61690;51.824;6.306;2022-08-18T15:24:31;9.00;;;4.10;;
73454;SDS011;61690;51.824;6.306;2022-08-18T15:27:15;6.30;;;3.92;;
73454;SDS011;61690;51.824;6.306;2022-08-18T15:29:41;7.17;;;4.07;;
73454;SDS011;61690;51.824;6.306;2022-08-18T15:32:06;8.30;;;4.43;;
73454;SDS011;61690;51.824;6.306;2022-08-18T15:34:33;6.18;;;3.80;;
73454;SDS011;61690;51.824;6.306;2022-08-18T15:36:59;7.88;;;4.20;;
73454;SDS011;61690;51.824;6.306;2022-08-18T15:39:24;8.20;;;4.17;;
73454;SDS011;61690;51.824;6.306;2022-08-18T15:41:50;6.27;;;4.13;;
73454;SDS011;61690;51.824;6.306;2022-08-18T15:44:17;8.25;;;4.47;;
73454;SDS011;61690;51.824;6.306;2022-08-18T15:46:45;7.32;;;4.38;;
73454;SDS011;61690;51.824;6.306;2022-08-18T15:49:16;6.47;;;4.35;;
73454;SDS011;61690;51.824;6.306;2022-08-18T15:51:42;7.53;;;3.83;;
73454;SDS011;61690;51.824;6.306;2022-08-18T15:54:09;7.95;;;4.20;;
73454;SDS011;61690;51.824;6.306;2022-08-18T15:56:38;7.20;;;4.53;;
73454;SDS011;61690;51.824;6.306;2022-08-18T15:59:03;6.57;;;4.27;;
73454;SDS011;61690;51.824;6.306;2022-08-18T16:01:30;8.02;;;4.45;;
73454;SDS011;61690;51.824;6.306;2022-08-18T16:03:56;8.13;;;4.23;;
73454;SDS011;61690;51.824;6.306;2022-08-18T16:06:22;8.80;;;4.30;;
73454;SDS011;61690;51.824;6.306;2022-08-18T16:08:50;7.97;;;4.00;;
73454;SDS011;61690;51.824;6.306;2022-08-18T16:11:16;9.60;;;4.10;;
73454;SDS011;61690;51.824;6.306;2022-08-18T16:13:43;6.73;;;4.20;;
73454;SDS011;61690;51.824;6.306;2022-08-18T16:16:12;6.40;;;4.00;;
73454;SDS011;61690;51.824;6.306;2022-08-18T16:18:43;8.85;;;4.35;;
73454;SDS011;61690;51.824;6.306;2022-08-18T16:21:15;8.30;;;4.35;;
73454;SDS011;61690;51.824;6.306;2022-08-18T16:23:46;7.27;;;4.40;;
73454;SDS011;61690;51.824;6.306;2022-08-18T16:26:14;7.35;;;4.35;;
73454;SDS011;61690;51.824;6.306;2022-08-18T16:28:41;6.95;;;4.15;;
73454;SDS011;61690;51.824;6.306;2022-08-18T16:31:09;7.10;;;4.20;;
73454;SDS011;61690;51.824;6.306;2022-08-18T16:33:36;8.15;;;4.20;;
73454;SDS011;61690;51.824;6.306;2022-08-18T16:36:05;6.57;;;4.20;;
73454;SDS011;61690;51.824;6.306;2022-08-18T16:38:32;7.45;;;4.50;;
73454;SDS011;61690;51.824;6.306;2022-08-18T16:41:04;9.33;;;4.40;;
73454;SDS011;61690;51.824;6.306;2022-08-18T16:43:32;5.90;;;3.70;;
73454;SDS011;61690;51.824;6.306;2022-08-18T16:46:01;6.65;;;4.65;;
73454;SDS011;61690;51.824;6.306;2022-08-18T16:48:27;6.65;;;4.18;;
73454;SDS011;61690;51.824;6.306;2022-08-18T16:50:53;5.97;;;4.40;;
73454;SDS011;61690;51.824;6.306;2022-08-18T16:53:18;7.23;;;4.50;;
73454;SDS011;61690;51.824;6.306;2022-08-18T16:55:44;7.17;;;4.30;;
73454;SDS011;61690;51.824;6.306;2022-08-18T16:58:09;8.23;;;4.70;;
73454;SDS011;61690;51.824;6.306;2022-08-18T17:00:54;7.07;;;4.40;;
73454;SDS011;61690;51.824;6.306;2022-08-18T17:03:39;8.45;;;4.30;;
73454;SDS011;61690;51.824;6.306;2022-08-18T17:06:23;6.63;;;4.50;;
73454;SDS011;61690;51.824;6.306;2022-08-18T17:08:52;9.15;;;4.40;;
73454;SDS011;61690;51.824;6.306;2022-08-18T17:11:21;6.45;;;4.20;;
73454;SDS011;61690;51.824;6.306;2022-08-18T17:13:48;8.07;;;4.25;;
73454;SDS011;61690;51.824;6.306;2022-08-18T17:16:15;6.63;;;4.15;;
73454;SDS011;61690;51.824;6.306;2022-08-18T17:18:45;7.40;;;4.20;;
73454;SDS011;61690;51.824;6.306;2022-08-18T17:21:12;7.18;;;4.18;;
73454;SDS011;61690;51.824;6.306;2022-08-18T17:23:42;7.65;;;4.18;;
73454;SDS011;61690;51.824;6.306;2022-08-18T17:26:11;7.87;;;4.10;;
73454;SDS011;61690;51.824;6.306;2022-08-18T17:28:43;7.15;;;4.15;;